createdAt,value
2018-04-12T00:01:00.276Z,7.30
2018-04-12T00:03:29.529Z,7.43
2018-04-12T00:05:58.001Z,8.17
2018-04-12T00:08:27.400Z,7.97
2018-04-12T00:10:55.884Z,8.10
2018-04-12T00:13:24.364Z,8.30
2018-04-12T00:15:53.147Z,8.00
2018-04-12T00:18:21.632Z,8.40
2018-04-12T00:20:50.106Z,7.63
2018-04-12T00:23:18.727Z,9.00
2018-04-12T00:25:47.389Z,8.73
2018-04-12T00:28:15.663Z,7.77
2018-04-12T00:30:44.017Z,8.23
2018-04-12T00:33:13.306Z,7.00
2018-04-12T00:35:42.586Z,7.87
2018-04-12T00:38:11.174Z,8.90
2018-04-12T00:40:40.453Z,8.77
2018-04-12T00:43:08.933Z,7.40
2018-04-12T00:45:37.424Z,9.40
2018-04-12T00:48:05.570Z,8.03
2018-04-12T00:50:34.057Z,8.13
2018-04-12T00:53:02.537Z,9.10
2018-04-12T00:55:31.073Z,8.30
2018-04-12T00:57:59.558Z,8.03
2018-04-12T01:00:28.078Z,8.20
2018-04-12T01:02:56.625Z,7.97
2018-04-12T01:05:25.109Z,9.27
2018-04-12T01:07:53.637Z,8.80
2018-04-12T01:10:22.128Z,8.03
2018-04-12T01:12:50.640Z,8.87
2018-04-12T01:15:19.142Z,8.63
2018-04-12T01:17:47.673Z,8.30
2018-04-12T01:20:16.134Z,7.33
2018-04-12T01:22:44.795Z,7.87
2018-04-12T01:25:14.047Z,8.23
2018-04-12T01:27:42.520Z,8.80
2018-04-12T01:30:11.116Z,8.93
2018-04-12T01:32:39.386Z,7.80
2018-04-12T01:35:07.669Z,8.07
2018-04-12T01:37:36.161Z,8.50
2018-04-12T01:40:04.324Z,8.87
2018-04-12T01:42:32.789Z,8.87
2018-04-12T01:45:01.293Z,8.70
2018-04-12T01:47:29.797Z,8.20
2018-04-12T01:49:58.414Z,8.93
2018-04-12T01:52:27.410Z,8.90
2018-04-12T01:54:56.509Z,9.10
2018-04-12T01:57:24.993Z,8.70
2018-04-12T01:59:54.242Z,8.53
2018-04-12T02:02:22.720Z,9.70
2018-04-12T02:04:51.305Z,9.17
2018-04-12T02:07:19.794Z,9.30
2018-04-12T02:09:48.278Z,9.10
2018-04-12T02:12:16.760Z,8.87
2018-04-12T02:14:45.230Z,9.90
2018-04-12T02:17:13.819Z,8.30
2018-04-12T02:19:42.300Z,8.40
2018-04-12T02:22:10.546Z,8.23
2018-04-12T02:24:39.773Z,9.80
2018-04-12T02:27:08.362Z,9.37
2018-04-12T02:29:36.609Z,9.30
2018-04-12T02:32:04.892Z,8.60
2018-04-12T02:34:33.380Z,9.70
2018-04-12T02:37:01.857Z,8.30
2018-04-12T02:39:30.335Z,8.30
2018-04-12T02:41:59.563Z,9.87
2018-04-12T02:44:28.061Z,9.00
2018-04-12T02:46:56.553Z,9.10
2018-04-12T02:49:25.031Z,9.67
2018-04-12T02:51:53.530Z,10.07
2018-04-12T02:54:22.383Z,9.50
2018-04-12T02:56:50.866Z,9.07
2018-04-12T02:59:19.339Z,10.23
2018-04-12T03:01:48.031Z,9.97
2018-04-12T03:04:16.655Z,9.20
2018-04-12T03:06:45.154Z,10.10
2018-04-12T03:09:13.853Z,10.20
2018-04-12T03:11:43.205Z,9.07
2018-04-12T03:14:11.697Z,9.03
2018-04-12T03:16:40.261Z,9.93
2018-04-12T03:19:08.733Z,8.97
2018-04-12T03:21:37.225Z,9.03
2018-04-12T03:24:05.717Z,9.20
2018-04-12T03:26:34.346Z,9.50
2018-04-12T03:29:03.264Z,9.40
2018-04-12T03:31:31.894Z,10.40
2018-04-12T03:34:00.392Z,10.17
2018-04-12T03:36:28.877Z,9.03
2018-04-12T03:38:57.376Z,10.60
2018-04-12T03:41:26.626Z,9.30
2018-04-12T03:43:55.129Z,10.20
2018-04-12T03:46:23.649Z,10.93
2018-04-12T03:48:52.893Z,10.30
2018-04-12T03:51:21.377Z,10.20
2018-04-12T03:53:49.958Z,9.20
2018-04-12T03:56:18.450Z,9.50
2018-04-12T03:58:46.916Z,10.17
2018-04-12T04:01:15.518Z,9.60
2018-04-12T04:03:43.988Z,9.80
2018-04-12T04:06:12.633Z,10.60
2018-04-12T04:08:41.890Z,10.10
2018-04-12T04:11:10.370Z,9.33
2018-04-12T04:13:38.878Z,9.70
2018-04-12T04:16:18.708Z,10.20
2018-04-12T04:18:58.412Z,10.40
2018-04-12T04:21:26.937Z,10.00
2018-04-12T04:23:55.425Z,9.90
2018-04-12T04:26:23.961Z,10.87
2018-04-12T04:28:53.217Z,10.33
2018-04-12T04:31:21.693Z,11.63
2018-04-12T04:33:49.897Z,9.60
2018-04-12T04:36:18.672Z,10.10
2018-04-12T04:38:47.238Z,10.53
2018-04-12T04:41:15.706Z,9.43
2018-04-12T04:43:44.184Z,10.40
2018-04-12T04:46:12.826Z,9.83
2018-04-12T04:48:42.084Z,10.50
2018-04-12T04:51:10.585Z,10.17
2018-04-12T04:53:39.080Z,11.10
2018-04-12T04:56:07.621Z,11.13
2018-04-12T04:58:36.175Z,11.27
2018-04-12T05:01:05.209Z,10.70
2018-04-12T05:03:33.466Z,10.20
2018-04-12T05:06:01.760Z,10.07
2018-04-12T05:08:30.037Z,11.07
2018-04-12T05:10:58.533Z,11.13
2018-04-12T05:13:27.201Z,11.03
2018-04-12T05:15:55.721Z,11.27
2018-04-12T05:18:24.221Z,11.07
2018-04-12T05:20:53.497Z,10.97
2018-04-12T05:23:21.772Z,10.90
2018-04-12T05:25:50.020Z,12.00
2018-04-12T05:28:18.522Z,10.67
2018-04-12T05:30:47.048Z,11.30
2018-04-12T05:33:16.412Z,11.17
2018-04-12T05:35:44.901Z,10.70
2018-04-12T05:38:13.385Z,12.17
2018-04-12T05:40:41.972Z,11.83
2018-04-12T05:43:10.468Z,11.90
2018-04-12T05:45:38.954Z,11.80
2018-04-12T05:48:07.455Z,12.30
2018-04-12T05:50:36.107Z,11.73
2018-04-12T05:53:04.718Z,12.23
2018-04-12T05:55:33.206Z,12.90
2018-04-12T05:58:02.462Z,12.73
2018-04-12T06:00:31.084Z,12.33
2018-04-12T06:02:59.629Z,11.83
2018-04-12T06:05:28.121Z,12.33
2018-04-12T06:07:56.606Z,11.37
2018-04-12T06:10:25.945Z,12.00
2018-04-12T06:12:54.470Z,14.10
2018-04-12T06:15:22.950Z,14.03
2018-04-12T06:17:51.446Z,13.63
2018-04-12T06:20:19.944Z,12.00
2018-04-12T06:22:48.441Z,11.30
2018-04-12T06:25:16.936Z,12.27
2018-04-12T06:27:46.196Z,13.13
2018-04-12T06:30:15.641Z,13.00
2018-04-12T06:32:44.188Z,10.70
2018-04-12T06:35:12.701Z,12.03
2018-04-12T06:37:41.274Z,10.50
2018-04-12T06:40:09.801Z,11.20
2018-04-12T06:42:39.049Z,12.10
2018-04-12T06:45:07.305Z,10.97
2018-04-12T06:47:35.678Z,10.50
2018-04-12T06:50:03.396Z,10.97
2018-04-12T06:52:32.078Z,10.70
2018-04-12T06:55:00.566Z,10.17
2018-04-12T06:57:29.086Z,10.10
2018-04-12T06:59:57.597Z,9.20
2018-04-12T07:02:26.073Z,9.57
2018-04-12T07:04:54.569Z,9.87
2018-04-12T07:07:23.069Z,10.50
2018-04-12T07:09:51.828Z,9.80
2018-04-12T07:12:20.309Z,10.03
2018-04-12T07:14:48.819Z,9.60
2018-04-12T07:17:17.326Z,10.10
2018-04-12T07:19:46.702Z,10.30
2018-04-12T07:22:15.464Z,8.77
2018-04-12T07:24:43.949Z,11.00
2018-04-12T07:27:12.217Z,9.33
2018-04-12T07:29:40.857Z,8.90
2018-04-12T07:32:09.405Z,9.30
2018-04-12T07:34:37.718Z,9.40
2018-04-12T07:37:06.225Z,8.90
2018-04-12T07:39:35.484Z,9.43
2018-04-12T07:42:03.981Z,11.13
2018-04-12T07:44:32.476Z,10.37
2018-04-12T07:47:01.968Z,11.20
2018-04-12T07:49:30.446Z,11.87
2018-04-12T07:51:59.012Z,12.47
2018-04-12T07:54:28.309Z,11.57
2018-04-12T07:56:56.810Z,10.37
2018-04-12T07:59:25.313Z,10.50
2018-04-12T08:01:53.577Z,10.70
2018-04-12T08:04:22.833Z,11.67
2018-04-12T08:06:51.100Z,11.07
2018-04-12T08:09:19.704Z,10.70
2018-04-12T08:11:48.246Z,10.00
2018-04-12T08:14:17.486Z,9.70
2018-04-12T08:16:45.940Z,11.50
2018-04-12T08:19:14.548Z,10.90
2018-04-12T08:21:43.065Z,9.33
2018-04-12T08:24:11.681Z,9.50
2018-04-12T08:26:41.041Z,9.13
2018-04-12T08:29:09.510Z,7.50
2018-04-12T08:31:38.201Z,7.67
2018-04-12T08:34:06.737Z,7.60
2018-04-12T08:36:36.001Z,6.37
2018-04-12T08:39:03.613Z,6.43
2018-04-12T08:41:32.958Z,5.40
2018-04-12T08:44:01.505Z,5.03
2018-04-12T08:46:30.824Z,5.33
2018-04-12T08:48:59.338Z,6.97
2018-04-12T08:51:27.907Z,5.90
2018-04-12T08:53:56.499Z,5.00
2018-04-12T08:56:25.045Z,4.70
2018-04-12T08:58:53.757Z,4.30
2018-04-12T09:01:22.301Z,4.37
2018-04-12T09:03:51.341Z,3.97
2018-04-12T09:06:19.486Z,3.77
2018-04-12T09:08:48.885Z,4.00
2018-04-12T09:11:18.146Z,4.20
2018-04-12T09:13:46.741Z,3.73
2018-04-12T09:16:15.346Z,2.87
2018-04-12T09:18:44.658Z,3.40
2018-04-12T09:21:13.920Z,2.97
2018-04-12T09:23:42.397Z,2.80
2018-04-12T09:26:11.025Z,2.83
2018-04-12T09:28:40.561Z,2.80
2018-04-12T09:31:09.137Z,2.30
2018-04-12T09:33:37.646Z,2.70
2018-04-12T09:36:06.180Z,2.40
2018-04-12T09:38:35.411Z,2.30
2018-04-12T09:41:03.927Z,2.20
2018-04-12T09:43:32.496Z,2.30
2018-04-12T09:46:01.000Z,2.20
2018-04-12T09:48:29.485Z,2.47
2018-04-12T09:50:58.199Z,2.33
2018-04-12T09:53:27.463Z,2.40
2018-04-12T09:55:55.991Z,3.23
2018-04-12T09:58:25.341Z,2.80
2018-04-12T10:00:55.557Z,2.60
2018-04-12T10:03:24.074Z,3.00
2018-04-12T10:05:58.837Z,3.60
2018-04-12T10:08:27.876Z,2.87
2018-04-12T10:10:56.031Z,2.57
2018-04-12T10:13:24.626Z,2.20
2018-04-12T10:15:53.229Z,2.70
2018-04-12T10:18:22.703Z,2.43
2018-04-12T10:20:51.298Z,2.30
2018-04-12T10:23:19.768Z,2.50
2018-04-12T10:25:48.245Z,2.13
2018-04-12T10:28:16.840Z,1.90
2018-04-12T10:30:45.569Z,2.17
2018-04-12T10:33:14.071Z,1.73
2018-04-12T10:35:43.312Z,1.67
2018-04-12T10:38:11.798Z,1.73
2018-04-12T10:40:40.288Z,2.13
2018-04-12T10:43:08.893Z,1.90
2018-04-12T10:45:37.337Z,1.70
2018-04-12T10:48:05.844Z,1.40
2018-04-12T10:50:35.183Z,1.27
2018-04-12T10:53:03.645Z,1.30
2018-04-12T10:55:32.125Z,1.17
2018-04-12T10:58:00.688Z,1.17
2018-04-12T11:00:29.168Z,1.30
2018-04-12T11:02:57.850Z,1.10
2018-04-12T11:05:26.353Z,0.90
2018-04-12T11:07:54.979Z,1.40
2018-04-12T11:10:24.369Z,1.10
2018-04-12T11:12:52.837Z,1.20
2018-04-12T11:15:21.410Z,1.00
2018-04-12T11:17:49.919Z,1.37
2018-04-12T11:20:18.577Z,1.30
2018-04-12T11:22:47.159Z,1.13
2018-04-12T11:25:15.641Z,0.90
2018-04-12T11:27:44.116Z,1.10
2018-04-12T11:30:12.594Z,1.20
2018-04-12T11:32:41.197Z,1.57
2018-04-12T11:35:09.689Z,1.23
2018-04-12T11:37:38.221Z,1.00
2018-04-12T11:40:06.732Z,1.57
2018-04-12T11:42:35.384Z,1.10
2018-04-12T11:45:03.869Z,0.90
2018-04-12T11:47:33.210Z,1.13
2018-04-12T11:50:01.802Z,1.00
2018-04-12T11:52:30.464Z,1.00
2018-04-12T11:54:59.002Z,1.00
2018-04-12T11:57:27.721Z,0.80
2018-04-12T11:59:56.215Z,0.90
2018-04-12T12:02:24.785Z,1.27
2018-04-12T12:04:53.409Z,0.80
2018-04-12T12:07:21.920Z,1.03
2018-04-12T12:09:50.401Z,0.83
2018-04-12T12:12:18.677Z,0.70
2018-04-12T12:14:47.403Z,0.90
2018-04-12T12:17:16.661Z,0.90
2018-04-12T12:19:45.369Z,0.93
2018-04-12T12:22:13.958Z,0.90
2018-04-12T12:24:43.185Z,0.80
2018-04-12T12:27:11.653Z,0.63
2018-04-12T12:29:40.925Z,0.50
2018-04-12T12:32:09.417Z,0.77
2018-04-12T12:34:38.148Z,0.60
2018-04-12T12:37:06.665Z,0.67
2018-04-12T12:39:35.356Z,0.80
2018-04-12T12:42:03.903Z,0.87
2018-04-12T12:44:32.397Z,0.70
2018-04-12T12:47:00.880Z,0.60
2018-04-12T12:49:29.418Z,0.90
2018-04-12T12:51:58.770Z,0.53
2018-04-12T12:54:27.259Z,0.70
2018-04-12T12:56:55.885Z,0.60
2018-04-12T12:59:25.253Z,0.70
2018-04-12T13:01:53.741Z,0.60
2018-04-12T13:04:22.284Z,0.77
2018-04-12T13:06:50.816Z,0.50
2018-04-12T13:09:20.349Z,0.70
2018-04-12T13:11:49.693Z,0.73
2018-04-12T13:14:18.282Z,0.93
2018-04-12T13:16:46.848Z,0.70
2018-04-12T13:19:15.331Z,0.80
2018-04-12T13:21:43.820Z,0.83
2018-04-12T13:24:12.068Z,0.60
2018-04-12T13:26:41.085Z,0.60
2018-04-12T13:29:09.552Z,0.90
2018-04-12T13:31:38.601Z,0.80
2018-04-12T13:34:07.081Z,0.87
2018-04-12T13:36:35.566Z,1.20
2018-04-12T13:39:03.158Z,0.60
2018-04-12T13:41:31.786Z,0.57
2018-04-12T13:44:00.377Z,0.70
2018-04-12T13:46:28.866Z,0.90
2018-04-12T13:48:57.358Z,1.00
2018-04-12T13:51:25.607Z,1.03
2018-04-12T13:53:53.915Z,0.73
2018-04-12T13:56:22.385Z,1.00
2018-04-12T13:58:50.964Z,1.07
2018-04-12T14:01:19.210Z,0.80
2018-04-12T14:03:48.645Z,0.97
2018-04-12T14:06:17.127Z,0.80
2018-04-12T14:08:45.748Z,0.60
2018-04-12T14:11:14.308Z,0.50
2018-04-12T14:13:42.784Z,0.70
2018-04-12T14:16:11.282Z,0.60
2018-04-12T14:18:39.766Z,0.50
2018-04-12T14:21:08.246Z,0.60
2018-04-12T14:23:36.720Z,0.60
2018-04-12T14:26:05.292Z,0.87
2018-04-12T14:28:33.797Z,0.90
2018-04-12T14:31:02.289Z,0.63
2018-04-12T14:33:31.830Z,0.60
2018-04-12T14:36:01.116Z,0.50
2018-04-12T14:38:31.478Z,0.70
2018-04-12T14:40:59.962Z,0.50
2018-04-12T14:43:28.494Z,0.60
2018-04-12T14:45:56.977Z,0.63
2018-04-12T14:48:25.465Z,0.50
2018-04-12T14:50:55.441Z,0.60
2018-04-12T14:53:23.943Z,0.60
2018-04-12T14:55:52.486Z,0.60
2018-04-12T14:58:20.974Z,0.70
2018-04-12T15:00:49.479Z,0.67
2018-04-12T15:03:17.963Z,0.63
2018-04-12T15:05:46.482Z,0.90
2018-04-12T15:08:15.758Z,0.70
2018-04-12T15:10:44.268Z,0.80
2018-04-12T15:13:12.747Z,0.70
2018-04-12T15:15:41.241Z,0.80
2018-04-12T15:18:09.728Z,0.70
2018-04-12T15:20:38.984Z,0.60
2018-04-12T15:23:07.505Z,0.67
2018-04-12T15:25:36.006Z,0.60
2018-04-12T15:28:04.711Z,0.40
2018-04-12T15:30:33.216Z,0.50
2018-04-12T15:33:01.714Z,0.73
2018-04-12T15:35:30.177Z,0.57
2018-04-12T15:37:58.674Z,0.50
2018-04-12T15:40:27.175Z,0.73
2018-04-12T15:42:55.657Z,0.60
2018-04-12T15:45:24.133Z,0.60
2018-04-12T15:47:52.641Z,1.27
2018-04-12T15:50:21.198Z,0.60
2018-04-12T15:52:49.683Z,0.80
2018-04-12T15:55:18.194Z,0.70
2018-04-12T15:57:47.014Z,1.03
2018-04-12T16:00:15.541Z,0.77
2018-04-12T16:02:44.053Z,0.73
2018-04-12T16:05:12.529Z,0.77
2018-04-12T16:07:41.781Z,0.60
2018-04-12T16:10:10.300Z,0.80
2018-04-12T16:12:38.780Z,0.60
2018-04-12T16:15:07.383Z,0.70
2018-04-12T16:17:35.922Z,1.00
2018-04-12T16:20:04.090Z,0.63
2018-04-12T16:22:32.581Z,0.63
2018-04-12T16:25:00.830Z,0.87
2018-04-12T16:27:29.437Z,0.60
2018-04-12T16:29:57.929Z,0.67
2018-04-12T16:32:26.429Z,1.07
2018-04-12T16:34:54.912Z,1.13
2018-04-12T16:37:23.484Z,1.17
2018-04-12T16:39:52.085Z,1.00
2018-04-12T16:42:20.629Z,0.90
2018-04-12T16:44:48.912Z,0.80
2018-04-12T16:47:17.401Z,0.90
2018-04-12T16:49:45.689Z,0.67
2018-04-12T16:52:13.932Z,0.90
2018-04-12T16:54:42.635Z,0.70
2018-04-12T16:57:11.117Z,0.60
2018-04-12T16:59:39.370Z,0.70
2018-04-12T17:02:08.941Z,0.80
2018-04-12T17:04:37.504Z,0.70
2018-04-12T17:07:05.977Z,0.70
2018-04-12T17:09:34.479Z,0.90
2018-04-12T17:12:03.009Z,0.80
2018-04-12T17:14:32.034Z,0.60
2018-04-12T17:17:00.300Z,0.80
2018-04-12T17:19:28.682Z,0.50
2018-04-12T17:21:56.947Z,0.60
2018-04-12T17:24:26.002Z,0.57
2018-04-12T17:26:54.486Z,0.67
2018-04-12T17:29:22.969Z,0.93
2018-04-12T17:31:51.525Z,0.70
2018-04-12T17:34:20.013Z,0.70
2018-04-12T17:36:48.516Z,1.10
2018-04-12T17:39:17.002Z,0.83
2018-04-12T17:41:45.162Z,1.13
2018-04-12T17:44:13.659Z,0.80
2018-04-12T17:46:42.178Z,0.80
2018-04-12T17:49:11.429Z,0.70
2018-04-12T17:51:40.665Z,0.70
2018-04-12T17:54:09.973Z,0.90
2018-04-12T17:56:39.213Z,0.77
2018-04-12T17:59:07.791Z,0.70
2018-04-12T18:01:36.281Z,0.90
2018-04-12T18:04:04.803Z,0.80
2018-04-12T18:06:33.307Z,0.80
2018-04-12T18:09:02.573Z,1.00
2018-04-12T18:11:31.075Z,0.80
2018-04-12T18:13:59.597Z,0.63
2018-04-12T18:16:28.151Z,0.80
2018-04-12T18:18:57.607Z,0.87
2018-04-12T18:21:26.273Z,0.90
2018-04-12T18:23:54.815Z,1.10
2018-04-12T18:26:23.354Z,1.13
2018-04-12T18:28:52.044Z,0.63
2018-04-12T18:31:20.640Z,0.87
2018-04-12T18:33:49.111Z,0.93
2018-04-12T18:36:17.633Z,1.03
2018-04-12T18:38:47.031Z,1.77
2018-04-12T18:41:15.744Z,0.80
2018-04-12T18:43:44.434Z,1.20
2018-04-12T18:46:13.716Z,1.30
2018-04-12T18:48:42.319Z,2.10
2018-04-12T18:51:11.596Z,1.90
2018-04-12T18:53:40.151Z,7.57
2018-04-12T18:56:08.630Z,3.83
2018-04-12T18:58:37.733Z,3.57
2018-04-12T19:01:06.005Z,2.67
2018-04-12T19:03:34.464Z,2.40
2018-04-12T19:06:02.980Z,1.70
2018-04-12T19:08:31.473Z,2.23
2018-04-12T19:10:59.978Z,1.60
2018-04-12T19:13:28.490Z,1.70
2018-04-12T19:15:57.206Z,1.50
2018-04-12T19:18:25.719Z,2.10
2018-04-12T19:20:54.250Z,2.50
2018-04-12T19:23:23.379Z,3.07
2018-04-12T19:25:51.917Z,3.07
2018-04-12T19:28:21.157Z,3.63
2018-04-12T19:30:49.662Z,5.77
2018-04-12T19:33:18.170Z,5.90
2018-04-12T19:35:46.466Z,5.20
2018-04-12T19:38:16.076Z,6.53
2018-04-12T19:40:45.336Z,5.13
2018-04-12T19:43:13.843Z,5.63
2018-04-12T19:45:42.108Z,6.83
2018-04-12T19:48:12.121Z,7.80
2018-04-12T19:50:40.618Z,9.40
2018-04-12T19:53:09.114Z,8.90
2018-04-12T19:55:38.420Z,8.87
2018-04-12T19:58:07.680Z,7.87
2018-04-12T20:00:36.235Z,6.70
2018-04-12T20:03:04.432Z,7.23
2018-04-12T20:05:32.931Z,6.30
2018-04-12T20:08:01.501Z,6.20
2018-04-12T20:10:29.998Z,5.73
2018-04-12T20:12:58.497Z,5.37
2018-04-12T20:15:26.980Z,4.97
2018-04-12T20:17:56.294Z,5.37
2018-04-12T20:20:25.731Z,6.27
2018-04-12T20:22:55.547Z,6.00
2018-04-12T20:25:24.173Z,6.50
2018-04-12T20:27:54.189Z,5.70
2018-04-12T20:30:22.699Z,5.50
2018-04-12T20:32:52.044Z,5.20
2018-04-12T20:35:20.549Z,5.40
2018-04-12T20:37:49.118Z,5.10
2018-04-12T20:40:17.649Z,4.87
2018-04-12T20:42:46.997Z,4.87
2018-04-12T20:45:15.589Z,4.43
2018-04-12T20:47:44.098Z,5.00
2018-04-12T20:50:12.604Z,5.80
2018-04-12T20:52:41.905Z,4.30
2018-04-12T20:55:11.181Z,5.00
2018-04-12T20:57:39.697Z,5.50
2018-04-12T21:00:08.964Z,6.40
2018-04-12T21:02:37.626Z,6.17
2018-04-12T21:05:05.867Z,5.10
2018-04-12T21:07:35.226Z,5.57
2018-04-12T21:10:03.720Z,4.73
2018-04-12T21:12:31.888Z,4.40
2018-04-12T21:15:00.402Z,4.80
2018-04-12T21:17:29.685Z,5.13
2018-04-12T21:19:58.936Z,6.30
2018-04-12T21:22:27.415Z,5.77
2018-04-12T21:24:56.970Z,6.23
2018-04-12T21:27:25.449Z,5.53
2018-04-12T21:29:54.087Z,6.17
2018-04-12T21:32:22.697Z,4.97
2018-04-12T21:34:51.181Z,5.17
2018-04-12T21:37:19.692Z,5.40
2018-04-12T21:39:48.369Z,5.90
2018-04-12T21:42:16.885Z,5.50
2018-04-12T21:44:46.219Z,5.60
2018-04-12T21:47:14.723Z,6.33
2018-04-12T21:49:43.314Z,6.63
2018-04-12T21:52:11.990Z,6.70
2018-04-12T21:54:40.519Z,7.53
2018-04-12T21:57:09.795Z,6.90
2018-04-12T21:59:38.336Z,7.23
2018-04-12T22:02:06.832Z,7.60
2018-04-12T22:04:35.327Z,7.70
2018-04-12T22:07:03.523Z,7.57
2018-04-12T22:09:32.028Z,7.97
2018-04-12T22:12:01.278Z,6.90
2018-04-12T22:14:30.122Z,9.00
2018-04-12T22:16:59.140Z,7.43
2018-04-12T22:19:29.478Z,9.47
2018-04-12T22:21:58.048Z,7.50
2018-04-12T22:24:27.293Z,9.20
2018-04-12T22:26:55.598Z,9.90
2018-04-12T22:29:24.229Z,9.10
2018-04-12T22:31:52.734Z,8.80
2018-04-12T22:34:21.405Z,9.47
2018-04-12T22:36:50.195Z,10.27
2018-04-12T22:39:18.896Z,10.10
2018-04-12T22:41:47.429Z,9.40
2018-04-12T22:44:16.712Z,8.13
2018-04-12T22:46:45.185Z,10.10
2018-04-12T22:49:13.666Z,9.13
2018-04-12T22:51:42.229Z,9.43
2018-04-12T22:54:10.708Z,8.27
2018-04-12T22:56:39.194Z,9.60
2018-04-12T22:59:08.276Z,8.93
2018-04-12T23:01:36.784Z,8.87
2018-04-12T23:04:05.282Z,8.77
2018-04-12T23:06:33.567Z,8.27
2018-04-12T23:09:02.253Z,8.60
2018-04-12T23:11:30.849Z,8.20
2018-04-12T23:13:59.337Z,8.40
2018-04-12T23:16:28.581Z,8.43
2018-04-12T23:18:57.065Z,7.67
2018-04-12T23:21:25.557Z,8.80
2018-04-12T23:23:54.099Z,9.20
2018-04-12T23:26:22.713Z,7.10
2018-04-12T23:28:51.193Z,7.50
2018-04-12T23:31:19.329Z,7.73
2018-04-12T23:33:48.581Z,8.20
2018-04-12T23:36:17.271Z,7.90
2018-04-12T23:38:45.762Z,7.90
2018-04-12T23:41:14.240Z,7.60
2018-04-12T23:43:42.733Z,7.93
2018-04-12T23:46:11.212Z,7.67
2018-04-12T23:48:40.581Z,7.50
2018-04-12T23:51:09.076Z,7.83
2018-04-12T23:53:38.360Z,7.37
2018-04-12T23:56:06.847Z,7.80
2018-04-12T23:58:35.352Z,7.40
